Bismarck Municipal Airport
KBIS : now visible

Airfield :











YOU CAN JOIN US ON...

 
LOGIN :

Register | Disclaimer

   EN    FR    IT 

 









Legend :    VFR   Marginal VFR   IFR   Intensive IFR   Very Intensive IFR
Visi :
Ceiling :
>= 8 km
>= 3000ft
5 to 8 km
1000 to 3000 ft
1500m to 5 km
500 to 1000 ft
800 to 1500m
200 to 500 ft
< 800m
< 200 ft
Symbols :   Thunderstorms  Fog  Heavy snow  Heavy precipitations  Wind > 20 kt






- Airport Elevation : 1661 ft
- IATA code : BIS


KBIS - Bismarck Municipal

CURRENT METAR :
  • 271452Z 31012KT 10SM -RA CLR 16/10 A2991 RMK AO2 RAB14 SLP130 P0000 60000 T01560100 53018

EXPIRED METARs :
  • 271352Z 30010G19KT 10SM FEW090 13/08 A2989 RMK AO2 SLP124 T01280083
  • 271252Z 29006KT 10SM CLR 12/07 A2987 RMK AO2 SLP118 T01170072
  • 271152Z 29005KT 10SM BKN080 09/07 A2985 RMK AO2 SLP115 60000 70033 T00940067 10128 20089 53014
  • 271052Z 27008KT 10SM CLR 09/06 A2984 RMK AO2 SLP105 T00890061

TAF KBIS
Valid from the 27 at 12:00 until the 28 at 12:00 UTC


271124Z 2712/2812 30010KT P6SM FEW110
FM271500 34012G20KT P6SM SCT150
FM280000 32010KT P6SM VCSH SCT080
FM280500 VRB03KT P6SM FEW120
KZMP FIR / North America



MET'MAP, your aeronautical weather chart ! - Copyright ORBIFLY December 2007 - Disclaimer

ORBIFLY MET'MAP TEAM :

Programming & Development : Alexandra Zaïnal
Original concept : Baudouin d'Aumeries
Technical & hardware support : Manuel Goepfert
Assistance : Marc-Olivier Méhu




SOURCES & CREDITS :

   NOAA       Earth
Advisory